Altaville, California
Current Conditions -  °F | °C
As of 4:35 AM on Saturday 01 Nov 2014 (Local Time) from KO22 Reporting Station
Broken Clouds Broken Clouds  
Wind Chill: 41°   Ceiling: 3200
Heat Index: 45°   Visibility: 3mi
Dew Point: 43°   Wind: 6mph
Humidity: 93%   Direction: 140°SE
Pressure: 29.77"   Gusts: NA
Location:  38.09°N, 120.58°W
Report Text: KO22 011135Z AUTO 14005KT 3SM FEW017 SCT025 BKN032 07/06 A2977 RMK AO1 P0017
Loading
Personal Weather Stations






























Interactive Weather Map
Tropical Storm Tracking
New forecast layout! Learn more

10-Day Weather Forecast

Advertisements
Track Severe Weather on mobile